Time;durP1;ratioP1;P1;durP2;ratioP2;P2;SDS_P1;SDS_P2;PMS_P1;PMS_P2;Temp;Humidity;BMP_temperature;BMP_pressure;BME280_temperature;BME280_humidity;BME280_pressure;Samples;Min_cycle;Max_cycle;Signal;HPM_P1;HPM_P2
2024/03/28 00:00:36;;;;;;;2.78;1.88;;;;;;;;;;4910803;29;20064;-83
2024/03/28 00:03:21;;;;;;;3.20;2.15;;;;;;;;;;4911926;28;20486;-82
2024/03/28 00:06:06;;;;;;;4.60;1.92;;;;;;;;;;4912301;29;20637;-82
2024/03/28 00:08:51;;;;;;;3.53;2.15;;;;;;;;;;4919619;28;20501;-82
2024/03/28 00:11:37;;;;;;;2.80;2.30;;;;;;;;;;4928531;29;20292;-82
2024/03/28 00:14:22;;;;;;;2.83;1.77;;;;;;;;;;4913683;29;20051;-82
2024/03/28 00:17:08;;;;;;;2.83;1.70;;;;;;;;;;4926507;29;20036;-83
2024/03/28 00:20:05;;;;;;;2.45;1.95;;;;;;;;;;4912080;29;20119;-82
2024/03/28 00:22:57;;;;;;;3.17;2.15;;;;;;;;;;4919592;29;20059;-82
2024/03/28 00:25:50;;;;;;;3.92;1.77;;;;;;;;;;4932196;28;20023;-82
2024/03/28 00:28:35;;;;;;;3.72;1.83;;;;;;;;;;4908932;29;20064;-82
2024/03/28 00:31:20;;;;;;;1.80;1.42;;;;;;;;;;4920560;29;20032;-82
2024/03/28 00:34:05;;;;;;;2.85;1.80;;;;;;;;;;4912355;29;20042;-82
2024/03/28 00:36:50;;;;;;;1.73;1.48;;;;;;;;;;4918576;29;20035;-82
2024/03/28 00:39:36;;;;;;;1.60;1.38;;;;;;;;;;4906656;29;20101;-82
2024/03/28 00:42:21;;;;;;;3.42;1.77;;;;;;;;;;4912164;29;20039;-82
2024/03/28 00:45:06;;;;;;;5.28;1.35;;;;;;;;;;4911395;28;20039;-83
2024/03/28 00:47:51;;;;;;;2.47;1.50;;;;;;;;;;4915506;29;20036;-82
2024/03/28 00:50:37;;;;;;;2.05;1.60;;;;;;;;;;4912423;29;20032;-84
2024/03/28 00:53:22;;;;;;;2.33;1.63;;;;;;;;;;4919909;29;20466;-82
2024/03/28 00:56:07;;;;;;;3.30;2.13;;;;;;;;;;4923892;29;20489;-80
2024/03/28 00:58:52;;;;;;;2.28;1.88;;;;;;;;;;4913715;29;20070;-82
2024/03/28 01:01:38;;;;;;;1.98;1.50;;;;;;;;;;4919323;29;20031;-82
2024/03/28 01:04:23;;;;;;;1.88;1.70;;;;;;;;;;4922593;29;20028;-82
2024/03/28 01:07:08;;;;;;;7.47;2.05;;;;;;;;;;4920039;29;20032;-81
2024/03/28 01:09:53;;;;;;;2.10;1.52;;;;;;;;;;4913901;28;20205;-83
2024/03/28 01:12:42;;;;;;;1.73;1.45;;;;;;;;;;4920949;29;20032;-82
2024/03/28 01:15:27;;;;;;;2.05;1.55;;;;;;;;;;4913160;29;20060;-82
2024/03/28 01:18:12;;;;;;;1.77;1.33;;;;;;;;;;4927277;29;20382;-82
2024/03/28 01:21:02;;;;;;;3.65;1.80;;;;;;;;;;4912735;29;20396;-82
2024/03/28 01:23:47;;;;;;;1.58;1.40;;;;;;;;;;4935208;29;20111;-80
2024/03/28 01:26:32;;;;;;;3.65;1.67;;;;;;;;;;4909021;29;20032;-82
2024/03/28 01:29:18;;;;;;;3.25;2.17;;;;;;;;;;4911695;28;20064;-81
2024/03/28 01:32:03;;;;;;;2.83;2.08;;;;;;;;;;4911729;29;20055;-81
2024/03/28 01:34:48;;;;;;;2.83;1.83;;;;;;;;;;4915878;29;20062;-81
2024/03/28 01:37:34;;;;;;;2.97;1.88;;;;;;;;;;4925195;28;20584;-81
2024/03/28 01:40:19;;;;;;;3.20;1.73;;;;;;;;;;4917777;29;20127;-81
2024/03/28 01:43:07;;;;;;;2.17;1.67;;;;;;;;;;4931482;28;20036;-81
2024/03/28 01:45:52;;;;;;;3.78;1.67;;;;;;;;;;4932949;28;20032;-80
2024/03/28 01:48:38;;;;;;;3.03;2.17;;;;;;;;;;4923499;29;20034;-81
2024/03/28 01:51:23;;;;;;;2.10;1.70;;;;;;;;;;4933479;28;20028;-82
2024/03/28 01:54:10;;;;;;;2.95;1.92;;;;;;;;;;4937110;28;20040;-82
2024/03/28 01:56:56;;;;;;;4.78;1.65;;;;;;;;;;4926431;29;20419;-83
2024/03/28 01:59:42;;;;;;;8.23;2.08;;;;;;;;;;4915457;29;20098;-83
2024/03/28 02:02:28;;;;;;;5.55;1.92;;;;;;;;;;4905578;29;20085;-82
2024/03/28 02:05:13;;;;;;;2.70;1.77;;;;;;;;;;4910940;29;20058;-82
2024/03/28 02:07:58;;;;;;;3.38;1.67;;;;;;;;;;4910803;29;20329;-83
2024/03/28 02:10:44;;;;;;;2.85;1.63;;;;;;;;;;4929509;29;20043;-84
2024/03/28 02:13:30;;;;;;;2.58;1.73;;;;;;;;;;4909549;29;20047;-82
2024/03/28 02:16:15;;;;;;;3.17;1.80;;;;;;;;;;4927862;28;20056;-82
2024/03/28 02:19:00;;;;;;;2.67;1.73;;;;;;;;;;4919086;29;20130;-82
2024/03/28 02:21:46;;;;;;;4.35;1.55;;;;;;;;;;4930245;29;20149;-82
2024/03/28 02:24:32;;;;;;;3.83;1.75;;;;;;;;;;4911387;29;20032;-82
2024/03/28 02:27:17;;;;;;;3.42;1.77;;;;;;;;;;4919046;29;20043;-82
2024/03/28 02:30:09;;;;;;;2.42;1.50;;;;;;;;;;4922397;29;20042;-81
2024/03/28 02:32:54;;;;;;;2.65;1.90;;;;;;;;;;4932907;29;20063;-82
2024/03/28 02:35:39;;;;;;;2.58;1.55;;;;;;;;;;4934095;29;20433;-82
2024/03/28 02:38:25;;;;;;;3.15;1.80;;;;;;;;;;4930584;29;20122;-83
2024/03/28 02:41:10;;;;;;;1.67;1.13;;;;;;;;;;4912541;29;20040;-82
2024/03/28 02:43:55;;;;;;;2.30;1.73;;;;;;;;;;4933781;29;20028;-82
2024/03/28 02:46:41;;;;;;;4.70;1.95;;;;;;;;;;4909014;28;20364;-82
2024/03/28 02:49:26;;;;;;;7.32;2.00;;;;;;;;;;4937509;28;20115;-82
2024/03/28 02:52:11;;;;;;;2.60;1.77;;;;;;;;;;4931340;28;20059;-82
2024/03/28 02:54:57;;;;;;;2.83;1.70;;;;;;;;;;4931542;28;20027;-82
2024/03/28 02:57:42;;;;;;;2.70;1.80;;;;;;;;;;4914145;29;20047;-83
2024/03/28 03:00:28;;;;;;;3.75;1.90;;;;;;;;;;4914671;28;20035;-83
2024/03/28 03:03:13;;;;;;;2.10;1.65;;;;;;;;;;4924530;29;20070;-83
2024/03/28 03:05:58;;;;;;;3.83;1.77;;;;;;;;;;4917684;29;20039;-83
2024/03/28 03:08:43;;;;;;;2.05;1.85;;;;;;;;;;4923919;29;20039;-82
2024/03/28 03:11:28;;;;;;;2.65;2.00;;;;;;;;;;4916920;28;20272;-83
2024/03/28 03:14:14;;;;;;;2.13;1.60;;;;;;;;;;4988911;28;20027;-84
2024/03/28 03:16:59;;;;;;;1.85;1.65;;;;;;;;;;4918431;29;20027;-84
2024/03/28 03:19:44;;;;;;;1.67;1.50;;;;;;;;;;4933968;29;20063;-83
2024/03/28 03:22:29;;;;;;;2.83;1.60;;;;;;;;;;4916691;29;20031;-83
2024/03/28 03:25:28;;;;;;;3.67;1.55;;;;;;;;;;4984973;28;20031;-83
2024/03/28 03:34:36;;;;;;;2.42;1.75;;;;;;;;;;4936212;28;20039;-83
2024/03/28 03:37:23;;;;;;;3.78;1.70;;;;;;;;;;4920632;29;20042;-82
2024/03/28 03:40:11;;;;;;;3.42;1.70;;;;;;;;;;4910807;29;20027;-83
2024/03/28 03:42:56;;;;;;;3.05;2.03;;;;;;;;;;4924304;29;20016;-83
2024/03/28 03:45:41;;;;;;;3.03;2.00;;;;;;;;;;4913694;28;20082;-83
2024/03/28 03:48:26;;;;;;;4.28;1.70;;;;;;;;;;4913031;29;20040;-83
2024/03/28 03:51:12;;;;;;;4.82;1.98;;;;;;;;;;4928288;29;20066;-82
2024/03/28 03:53:57;;;;;;;5.05;2.22;;;;;;;;;;4988814;28;20059;-83
2024/03/28 03:56:42;;;;;;;3.80;1.83;;;;;;;;;;4921300;29;20027;-82
2024/03/28 03:59:28;;;;;;;4.25;2.08;;;;;;;;;;4920851;29;20031;-83
2024/03/28 04:02:13;;;;;;;2.40;1.75;;;;;;;;;;4925628;28;20016;-83
2024/03/28 04:04:58;;;;;;;3.22;1.80;;;;;;;;;;4920670;29;20061;-82
2024/03/28 04:07:43;;;;;;;2.63;1.63;;;;;;;;;;4914576;29;20044;-81
2024/03/28 04:10:28;;;;;;;1.85;1.67;;;;;;;;;;4926090;29;20031;-82
2024/03/28 04:13:14;;;;;;;4.53;1.80;;;;;;;;;;4924424;29;20036;-82
2024/03/28 04:15:59;;;;;;;5.78;2.17;;;;;;;;;;4914172;28;20043;-82
2024/03/28 04:18:44;;;;;;;3.92;1.75;;;;;;;;;;4928047;29;20024;-82
2024/03/28 04:21:29;;;;;;;4.88;1.98;;;;;;;;;;4916048;29;20024;-82
2024/03/28 04:24:15;;;;;;;2.28;1.90;;;;;;;;;;4911264;29;20047;-82
2024/03/28 04:27:00;;;;;;;3.55;1.83;;;;;;;;;;4913369;29;20043;-83
2024/03/28 04:29:45;;;;;;;4.20;2.22;;;;;;;;;;4982398;28;20258;-83
2024/03/28 04:32:30;;;;;;;6.53;2.05;;;;;;;;;;4927591;28;20070;-82
2024/03/28 04:35:15;;;;;;;3.08;1.63;;;;;;;;;;4982670;28;20031;-84
2024/03/28 04:38:00;;;;;;;3.97;2.08;;;;;;;;;;4925671;29;20024;-83
2024/03/28 04:40:46;;;;;;;1.90;1.58;;;;;;;;;;4919728;29;20032;-83
2024/03/28 04:43:31;;;;;;;3.70;1.85;;;;;;;;;;4930510;29;20072;-84
2024/03/28 04:46:17;;;;;;;2.85;1.88;;;;;;;;;;4913465;29;20028;-83
2024/03/28 04:49:03;;;;;;;3.83;2.03;;;;;;;;;;4982151;28;20022;-83
2024/03/28 04:51:49;;;;;;;2.60;2.05;;;;;;;;;;4916105;29;20383;-84
2024/03/28 04:54:34;;;;;;;3.35;1.85;;;;;;;;;;4915721;28;20027;-84
2024/03/28 04:57:19;;;;;;;2.78;1.88;;;;;;;;;;4919853;28;20043;-83
2024/03/28 05:00:08;;;;;;;2.78;1.88;;;;;;;;;;4915914;29;20391;-83
2024/03/28 05:02:53;;;;;;;3.65;2.13;;;;;;;;;;4983411;28;20031;-82
2024/03/28 05:05:38;;;;;;;4.07;2.08;;;;;;;;;;4922000;29;20043;-83
2024/03/28 05:08:24;;;;;;;3.08;2.17;;;;;;;;;;4927350;28;20070;-84
2024/03/28 05:11:09;;;;;;;5.57;2.88;;;;;;;;;;4916551;29;20063;-84
2024/03/28 05:13:54;;;;;;;4.05;2.30;;;;;;;;;;4930718;28;20039;-84
2024/03/28 05:16:40;;;;;;;4.22;2.03;;;;;;;;;;4909554;29;20392;-84
2024/03/28 05:19:25;;;;;;;3.03;2.25;;;;;;;;;;4909994;29;20043;-81
2024/03/28 05:22:11;;;;;;;3.38;1.98;;;;;;;;;;4928414;28;20049;-83
2024/03/28 05:24:56;;;;;;;3.97;2.28;;;;;;;;;;4917551;29;20024;-83
2024/03/28 05:27:41;;;;;;;5.95;1.95;;;;;;;;;;4931341;28;20039;-82
2024/03/28 05:30:27;;;;;;;4.75;2.50;;;;;;;;;;4927524;28;20039;-84
2024/03/28 05:33:12;;;;;;;3.80;2.28;;;;;;;;;;4928614;29;20038;-85
2024/03/28 05:35:57;;;;;;;4.65;2.20;;;;;;;;;;4927752;29;20111;-84
2024/03/28 05:38:43;;;;;;;2.97;2.10;;;;;;;;;;4928002;29;20035;-84
2024/03/28 05:41:28;;;;;;;9.68;2.47;;;;;;;;;;4941133;28;20028;-82
2024/03/28 05:44:13;;;;;;;3.00;2.42;;;;;;;;;;4923486;29;20036;-79
2024/03/28 05:46:58;;;;;;;9.68;3.47;;;;;;;;;;4928780;28;20023;-81
2024/03/28 05:49:43;;;;;;;4.07;2.55;;;;;;;;;;4926408;29;20036;-79
2024/03/28 05:52:29;;;;;;;5.18;2.75;;;;;;;;;;4918992;28;20031;-80
2024/03/28 05:55:14;;;;;;;5.13;2.53;;;;;;;;;;4922627;28;20106;-79
2024/03/28 05:57:59;;;;;;;4.53;2.53;;;;;;;;;;4912634;29;20032;-80
2024/03/28 06:00:44;;;;;;;5.35;2.80;;;;;;;;;;4915833;29;20066;-80
2024/03/28 06:03:30;;;;;;;5.53;3.10;;;;;;;;;;4911857;29;20024;-81
2024/03/28 06:06:15;;;;;;;7.65;3.17;;;;;;;;;;4918963;29;20024;-83
2024/03/28 06:09:00;;;;;;;7.03;3.03;;;;;;;;;;4927636;29;20034;-84
2024/03/28 06:11:46;;;;;;;4.82;2.97;;;;;;;;;;4924701;29;20024;-85
2024/03/28 06:14:38;;;;;;;4.13;2.55;;;;;;;;;;4918988;28;20375;-83
2024/03/28 06:17:23;;;;;;;5.93;3.08;;;;;;;;;;4950282;28;20063;-84
2024/03/28 06:20:10;;;;;;;5.40;3.03;;;;;;;;;;4921523;29;20341;-83
2024/03/28 06:22:55;;;;;;;5.60;3.15;;;;;;;;;;4915990;29;20423;-86
2024/03/28 06:25:41;;;;;;;5.65;3.15;;;;;;;;;;4909784;29;20028;-85
2024/03/28 06:28:26;;;;;;;5.90;3.10;;;;;;;;;;4912034;29;20075;-84
2024/03/28 06:31:11;;;;;;;7.28;2.83;;;;;;;;;;4912840;29;20032;-84
2024/03/28 06:33:57;;;;;;;5.38;2.88;;;;;;;;;;4922942;29;20028;-86
2024/03/28 06:36:42;;;;;;;5.43;2.63;;;;;;;;;;4916308;29;20027;-85
2024/03/28 06:39:27;;;;;;;6.60;3.80;;;;;;;;;;4936333;29;20087;-86
2024/03/28 06:42:13;;;;;;;3.85;2.78;;;;;;;;;;4919314;29;20036;-85
2024/03/28 06:44:58;;;;;;;5.05;3.03;;;;;;;;;;4927275;29;20028;-85
2024/03/28 06:47:43;;;;;;;7.03;3.28;;;;;;;;;;4912006;29;20027;-88
2024/03/28 06:50:28;;;;;;;8.18;3.50;;;;;;;;;;4934686;29;20030;-87
2024/03/28 06:53:14;;;;;;;5.18;2.90;;;;;;;;;;4906516;28;20652;-88
2024/03/28 06:55:59;;;;;;;7.55;4.55;;;;;;;;;;4924558;28;20040;-84
2024/03/28 06:58:45;;;;;;;5.40;3.53;;;;;;;;;;4920752;29;20082;-84
2024/03/28 07:01:30;;;;;;;5.22;3.15;;;;;;;;;;4910409;29;20114;-85
2024/03/28 07:04:15;;;;;;;7.88;4.38;;;;;;;;;;4933933;29;20324;-84
2024/03/28 07:07:01;;;;;;;6.70;4.25;;;;;;;;;;4917182;29;20087;-84
2024/03/28 07:09:46;;;;;;;5.50;3.10;;;;;;;;;;4931799;28;20402;-90
2024/03/28 07:12:31;;;;;;;6.60;3.95;;;;;;;;;;4924949;29;20043;-87
2024/03/28 07:15:16;;;;;;;5.43;3.55;;;;;;;;;;4917161;29;20050;-83
2024/03/28 07:18:01;;;;;;;7.18;3.30;;;;;;;;;;4936625;28;20044;-88
2024/03/28 07:20:47;;;;;;;5.07;3.15;;;;;;;;;;4930130;29;20115;-89
2024/03/28 07:23:32;;;;;;;5.25;2.50;;;;;;;;;;4951916;28;20076;-88
2024/03/28 07:26:18;;;;;;;4.72;3.10;;;;;;;;;;4931876;28;20046;-90
2024/03/28 07:29:03;;;;;;;7.85;3.38;;;;;;;;;;4921872;28;20031;-86
2024/03/28 07:31:48;;;;;;;5.63;2.70;;;;;;;;;;4917235;28;20028;-90
2024/03/28 07:34:34;;;;;;;7.03;3.03;;;;;;;;;;4907924;29;20312;-88
2024/03/28 07:37:19;;;;;;;5.45;3.20;;;;;;;;;;4933297;28;20058;-86
2024/03/28 07:40:06;;;;;;;4.05;2.38;;;;;;;;;;4924408;28;20032;-87
2024/03/28 07:42:52;;;;;;;4.65;2.67;;;;;;;;;;4930451;28;20020;-86
2024/03/28 07:45:38;;;;;;;4.10;2.70;;;;;;;;;;4921178;28;20032;-84
2024/03/28 07:48:23;;;;;;;4.53;2.70;;;;;;;;;;4914589;29;20031;-88
2024/03/28 07:51:08;;;;;;;5.03;2.83;;;;;;;;;;4917556;28;20054;-86
2024/03/28 07:53:54;;;;;;;5.30;2.60;;;;;;;;;;4920375;29;20032;-87
2024/03/28 07:56:41;;;;;;;6.50;3.33;;;;;;;;;;4919915;28;20539;-88
2024/03/28 07:59:27;;;;;;;4.25;2.70;;;;;;;;;;4913394;29;20028;-85
2024/03/28 08:02:12;;;;;;;5.28;3.25;;;;;;;;;;4910753;28;20082;-84
2024/03/28 08:04:59;;;;;;;6.82;3.55;;;;;;;;;;4912448;29;20028;-82
2024/03/28 08:07:44;;;;;;;5.10;3.15;;;;;;;;;;4920318;28;20043;-82
2024/03/28 08:10:31;;;;;;;4.45;2.60;;;;;;;;;;4929161;29;20031;-83
2024/03/28 08:13:16;;;;;;;6.07;3.58;;;;;;;;;;4916289;28;20046;-83
2024/03/28 08:16:01;;;;;;;5.38;2.95;;;;;;;;;;4915414;28;20083;-85
2024/03/28 08:18:46;;;;;;;3.28;2.40;;;;;;;;;;4913678;29;20028;-82
2024/03/28 08:21:33;;;;;;;3.65;2.22;;;;;;;;;;4930199;28;20028;-82
2024/03/28 08:24:25;;;;;;;4.15;2.15;;;;;;;;;;4989349;28;20042;-83
2024/03/28 08:27:10;;;;;;;5.28;2.50;;;;;;;;;;4914012;29;20028;-82
2024/03/28 08:29:55;;;;;;;5.15;2.10;;;;;;;;;;4943716;28;20027;-83
2024/03/28 08:32:41;;;;;;;5.65;1.88;;;;;;;;;;4915528;29;20115;-84
2024/03/28 08:35:28;;;;;;;2.55;1.80;;;;;;;;;;4917152;28;20026;-84
2024/03/28 08:38:13;;;;;;;2.80;2.10;;;;;;;;;;4921896;28;20099;-84
2024/03/28 08:40:59;;;;;;;2.63;1.75;;;;;;;;;;4917412;29;20024;-83
2024/03/28 08:43:48;;;;;;;2.92;1.80;;;;;;;;;;4917961;29;20031;-84
2024/03/28 08:46:33;;;;;;;4.30;1.95;;;;;;;;;;4918391;29;20032;-84
2024/03/28 08:49:18;;;;;;;4.97;2.50;;;;;;;;;;4921625;29;20102;-84
2024/03/28 08:52:03;;;;;;;4.13;2.33;;;;;;;;;;4910720;29;20032;-85
2024/03/28 08:54:48;;;;;;;5.10;1.67;;;;;;;;;;4918564;29;20059;-83
2024/03/28 08:57:34;;;;;;;3.03;1.80;;;;;;;;;;4918937;28;20109;-86
2024/03/28 09:00:19;;;;;;;2.58;1.55;;;;;;;;;;4932401;29;20035;-86
2024/03/28 09:03:04;;;;;;;2.17;1.65;;;;;;;;;;4918441;28;20028;-84
2024/03/28 09:05:50;;;;;;;2.72;1.27;;;;;;;;;;4929667;28;20057;-85
2024/03/28 09:08:35;;;;;;;1.77;1.30;;;;;;;;;;4917136;29;20127;-85
2024/03/28 09:11:20;;;;;;;3.17;1.38;;;;;;;;;;4935773;29;20414;-84
2024/03/28 09:14:06;;;;;;;1.30;1.05;;;;;;;;;;4929717;28;20055;-85
2024/03/28 09:16:51;;;;;;;6.55;1.10;;;;;;;;;;4922002;29;20043;-84
2024/03/28 09:19:37;;;;;;;1.63;1.13;;;;;;;;;;4924034;28;20032;-84
2024/03/28 09:22:22;;;;;;;1.02;0.75;;;;;;;;;;4924017;29;20077;-87
2024/03/28 09:25:09;;;;;;;1.23;1.00;;;;;;;;;;4920168;29;20069;-93
2024/03/28 09:27:54;;;;;;;0.70;0.70;;;;;;;;;;4936627;28;20032;-91
2024/03/28 09:30:40;;;;;;;0.98;0.88;;;;;;;;;;4926561;29;20031;-89
2024/03/28 09:33:25;;;;;;;0.80;0.63;;;;;;;;;;4942552;28;20033;-92
2024/03/28 09:36:13;;;;;;;1.20;0.98;;;;;;;;;;4946070;29;20091;-88
2024/03/28 09:38:59;;;;;;;0.95;0.88;;;;;;;;;;4931009;28;20263;-86
2024/03/28 09:41:45;;;;;;;0.90;0.90;;;;;;;;;;4917071;29;20032;-85
2024/03/28 09:44:31;;;;;;;0.85;0.60;;;;;;;;;;4936539;28;20027;-86
2024/03/28 09:47:16;;;;;;;0.98;0.70;;;;;;;;;;4941536;29;20500;-86
2024/03/28 09:50:16;;;;;;;1.20;0.90;;;;;;;;;;4947336;28;20027;-92
2024/03/28 09:53:04;;;;;;;1.45;0.60;;;;;;;;;;4954097;29;20046;-92
2024/03/28 09:55:52;;;;;;;2.17;0.85;;;;;;;;;;4954511;28;20032;-91
2024/03/28 10:02:32;;;;;;;1.73;0.70;;;;;;;;;;4943583;28;20028;-84
2024/03/28 10:05:20;;;;;;;3.35;0.73;;;;;;;;;;4907955;28;20047;-85
2024/03/28 10:08:06;;;;;;;0.55;0.55;;;;;;;;;;4984087;28;20032;-83
2024/03/28 10:10:52;;;;;;;0.77;0.70;;;;;;;;;;4926092;28;20095;-84
2024/03/28 10:13:38;;;;;;;2.15;0.68;;;;;;;;;;4924633;28;20098;-84
2024/03/28 10:16:26;;;;;;;0.43;0.43;;;;;;;;;;4911542;29;20282;-84
2024/03/28 10:19:13;;;;;;;0.85;0.60;;;;;;;;;;4922601;28;20027;-84
2024/03/28 10:22:06;;;;;;;0.98;0.65;;;;;;;;;;4915687;29;20035;-88
2024/03/28 10:24:52;;;;;;;0.68;0.68;;;;;;;;;;4921979;29;20382;-88
2024/03/28 10:27:39;;;;;;;0.93;0.77;;;;;;;;;;4990992;28;20046;-88
2024/03/28 10:30:25;;;;;;;0.40;0.40;;;;;;;;;;4922836;29;20110;-89
2024/03/28 10:33:11;;;;;;;1.30;0.65;;;;;;;;;;4926282;29;20110;-88
2024/03/28 10:35:57;;;;;;;1.00;0.57;;;;;;;;;;4917902;29;20130;-87
2024/03/28 10:38:42;;;;;;;0.77;0.55;;;;;;;;;;4919711;29;20066;-84
2024/03/28 10:44:49;;;;;;;0.60;0.60;;;;;;;;;;4931886;29;20093;-87
2024/03/28 10:47:51;;;;;;;;;;;;;;;;;;;;;
2024/03/28 10:50:52;;;;;;;1.08;0.70;;;;;;;;;;4918157;29;20035;-87
2024/03/28 10:53:47;;;;;;;1.13;0.60;;;;;;;;;;4924876;29;20086;-85
2024/03/28 10:56:32;;;;;;;0.70;0.52;;;;;;;;;;4926412;28;20080;-86
2024/03/28 10:59:18;;;;;;;1.85;0.80;;;;;;;;;;4925323;29;20082;-86
2024/03/28 11:02:05;;;;;;;2.63;1.08;;;;;;;;;;4940334;29;20020;-82
2024/03/28 11:04:51;;;;;;;4.40;1.65;;;;;;;;;;4923639;29;20030;-82
2024/03/28 11:07:36;;;;;;;1.00;0.90;;;;;;;;;;4930172;28;20035;-83
2024/03/28 11:10:22;;;;;;;0.95;0.75;;;;;;;;;;4904534;28;20038;-83
2024/03/28 11:13:07;;;;;;;0.80;0.60;;;;;;;;;;4915657;29;20113;-82
2024/03/28 11:16:06;;;;;;;1.30;0.65;;;;;;;;;;4981157;28;20051;-83
2024/03/28 11:18:51;;;;;;;2.05;1.02;;;;;;;;;;4914523;28;20105;-82
2024/03/28 11:21:36;;;;;;;0.85;0.75;;;;;;;;;;4915135;28;20032;-80
2024/03/28 11:24:28;;;;;;;3.53;1.00;;;;;;;;;;4917124;28;20092;-89
2024/03/28 11:27:20;;;;;;;0.50;0.50;;;;;;;;;;4937688;28;20386;-85
2024/03/28 11:30:08;;;;;;;0.50;0.50;;;;;;;;;;4915807;29;20024;-86
2024/03/28 11:33:10;;;;;;;2.17;0.70;;;;;;;;;;4920031;28;20028;-85
2024/03/28 11:36:02;;;;;;;0.60;0.55;;;;;;;;;;4924511;29;20121;-85
2024/03/28 11:38:47;;;;;;;0.63;0.60;;;;;;;;;;4921648;29;20032;-85
2024/03/28 11:41:33;;;;;;;0.70;0.65;;;;;;;;;;4918281;29;20043;-86
2024/03/28 11:44:18;;;;;;;1.05;0.70;;;;;;;;;;4925157;28;20052;-78
2024/03/28 11:47:08;;;;;;;0.80;0.63;;;;;;;;;;4915577;29;20032;-78
2024/03/28 11:50:02;;;;;;;1.20;0.60;;;;;;;;;;4913745;28;20039;-86
2024/03/28 11:52:47;;;;;;;3.83;0.60;;;;;;;;;;4926122;28;20467;-86
2024/03/28 11:55:37;;;;;;;1.05;0.50;;;;;;;;;;4920492;29;20066;-87
2024/03/28 11:58:26;;;;;;;0.60;0.60;;;;;;;;;;4931095;28;20038;-88
2024/03/28 12:01:12;;;;;;;2.60;0.63;;;;;;;;;;4921262;29;20443;-91
2024/03/28 12:03:57;;;;;;;1.15;0.80;;;;;;;;;;4922304;29;20059;-89
2024/03/28 12:06:42;;;;;;;0.63;0.63;;;;;;;;;;4917409;28;20576;-94
2024/03/28 12:09:27;;;;;;;2.58;0.60;;;;;;;;;;4922168;29;20036;-88
2024/03/28 12:12:13;;;;;;;0.70;0.70;;;;;;;;;;4931702;28;20482;-89
2024/03/28 12:15:02;;;;;;;0.80;0.65;;;;;;;;;;4933212;28;20044;-90
2024/03/28 12:17:48;;;;;;;1.45;0.93;;;;;;;;;;4920726;29;20115;-87
2024/03/28 12:20:33;;;;;;;0.50;0.50;;;;;;;;;;4929903;28;20020;-88
2024/03/28 12:23:21;;;;;;;2.85;0.70;;;;;;;;;;4924097;28;20027;-91
2024/03/28 12:26:07;;;;;;;0.60;0.60;;;;;;;;;;4925770;29;20074;-90
2024/03/28 12:28:52;;;;;;;3.58;0.55;;;;;;;;;;4925251;29;20043;-91
2024/03/28 12:31:37;;;;;;;2.42;0.60;;;;;;;;;;4933232;28;20031;-87
2024/03/28 12:34:23;;;;;;;0.50;0.50;;;;;;;;;;4914861;29;20138;-89
2024/03/28 12:37:08;;;;;;;1.42;0.85;;;;;;;;;;4927305;29;20103;-90
2024/03/28 12:39:53;;;;;;;1.15;0.85;;;;;;;;;;4919285;29;20059;-88
2024/03/28 12:42:38;;;;;;;0.68;0.50;;;;;;;;;;4929475;29;20024;-89
2024/03/28 12:45:25;;;;;;;0.70;0.70;;;;;;;;;;4933726;29;20625;-88
2024/03/28 12:48:12;;;;;;;0.75;0.70;;;;;;;;;;4927592;28;20032;-89
2024/03/28 12:50:57;;;;;;;2.10;1.20;;;;;;;;;;4915970;28;20043;-89
2024/03/28 12:53:43;;;;;;;0.52;0.50;;;;;;;;;;4916479;28;20028;-88
2024/03/28 12:56:28;;;;;;;0.50;0.50;;;;;;;;;;4923005;28;20059;-87
2024/03/28 12:59:14;;;;;;;0.95;0.60;;;;;;;;;;4927059;29;20058;-90
2024/03/28 13:01:59;;;;;;;0.80;0.70;;;;;;;;;;4920455;29;20035;-90
2024/03/28 13:04:44;;;;;;;1.52;0.70;;;;;;;;;;4914123;28;20035;-86
2024/03/28 13:07:30;;;;;;;1.65;0.60;;;;;;;;;;4912401;29;20066;-90
2024/03/28 13:10:15;;;;;;;0.60;0.60;;;;;;;;;;4925925;28;20032;-88
2024/03/28 13:13:00;;;;;;;1.73;0.63;;;;;;;;;;4933616;29;20430;-89
2024/03/28 13:15:46;;;;;;;0.50;0.50;;;;;;;;;;4920923;29;20510;-90
2024/03/28 13:18:31;;;;;;;0.55;0.55;;;;;;;;;;4938679;29;20062;-91
2024/03/28 13:21:16;;;;;;;0.50;0.50;;;;;;;;;;4931862;29;20055;-85
2024/03/28 13:24:02;;;;;;;2.25;0.52;;;;;;;;;;4924820;28;20016;-90
2024/03/28 13:26:47;;;;;;;0.63;0.63;;;;;;;;;;4917084;29;20482;-84
2024/03/28 13:29:33;;;;;;;2.42;0.60;;;;;;;;;;4918043;29;20043;-85
2024/03/28 13:32:18;;;;;;;1.65;0.60;;;;;;;;;;4991311;28;20177;-87
2024/03/28 13:35:04;;;;;;;0.85;0.60;;;;;;;;;;4924361;28;20106;-90
2024/03/28 13:37:49;;;;;;;0.93;0.60;;;;;;;;;;4921646;28;20024;-90
2024/03/28 13:40:37;;;;;;;0.73;0.73;;;;;;;;;;4904894;29;20051;-90
2024/03/28 13:43:22;;;;;;;0.60;0.45;;;;;;;;;;4926735;29;20046;-91
2024/03/28 13:46:07;;;;;;;0.70;0.70;;;;;;;;;;4925305;29;20028;-90
2024/03/28 13:48:53;;;;;;;1.40;0.52;;;;;;;;;;4942805;29;20035;-89
2024/03/28 13:51:38;;;;;;;0.88;0.70;;;;;;;;;;4936220;29;20123;-90
2024/03/28 13:54:24;;;;;;;1.02;0.88;;;;;;;;;;4921507;29;20027;-83
2024/03/28 13:57:09;;;;;;;1.00;0.60;;;;;;;;;;4920565;29;20036;-84
2024/03/28 13:59:54;;;;;;;2.35;0.73;;;;;;;;;;4908937;29;20032;-83
2024/03/28 14:02:39;;;;;;;1.85;0.60;;;;;;;;;;4938689;29;20043;-83
2024/03/28 14:05:25;;;;;;;1.83;0.60;;;;;;;;;;4927732;29;20482;-83
2024/03/28 14:08:10;;;;;;;0.85;0.60;;;;;;;;;;4927914;29;20534;-83
2024/03/28 14:10:55;;;;;;;1.80;0.50;;;;;;;;;;4927606;29;20085;-84
2024/03/28 14:13:40;;;;;;;0.60;0.50;;;;;;;;;;4928066;29;20039;-84
2024/03/28 14:16:25;;;;;;;1.75;0.80;;;;;;;;;;4916495;28;20146;-84
2024/03/28 14:19:11;;;;;;;0.50;0.50;;;;;;;;;;4908967;29;20796;-84
2024/03/28 14:21:56;;;;;;;0.60;0.60;;;;;;;;;;4922030;29;20113;-84
2024/03/28 14:24:41;;;;;;;0.98;0.82;;;;;;;;;;4922327;29;20027;-84
2024/03/28 14:27:26;;;;;;;1.40;0.60;;;;;;;;;;4909442;29;20106;-84
2024/03/28 14:30:12;;;;;;;1.13;0.82;;;;;;;;;;4910725;29;20064;-84
2024/03/28 14:32:57;;;;;;;1.45;1.20;;;;;;;;;;4926642;29;20024;-86
2024/03/28 14:35:43;;;;;;;0.68;0.65;;;;;;;;;;4909895;29;20064;-84
2024/03/28 14:38:28;;;;;;;1.35;0.63;;;;;;;;;;4923648;29;20153;-85
2024/03/28 14:41:14;;;;;;;2.35;0.50;;;;;;;;;;4924995;29;20027;-84
2024/03/28 14:43:59;;;;;;;0.60;0.60;;;;;;;;;;4915009;29;20475;-85
2024/03/28 14:46:44;;;;;;;0.73;0.50;;;;;;;;;;4916715;29;20090;-85
2024/03/28 14:49:31;;;;;;;0.98;0.52;;;;;;;;;;4916012;29;20115;-85
2024/03/28 14:52:16;;;;;;;1.42;0.70;;;;;;;;;;4916929;29;20490;-85
2024/03/28 14:55:01;;;;;;;1.98;0.50;;;;;;;;;;4933289;29;20042;-85
2024/03/28 14:57:46;;;;;;;1.20;0.77;;;;;;;;;;4918662;29;20038;-85
2024/03/28 15:00:32;;;;;;;4.15;0.70;;;;;;;;;;4926076;29;20031;-85
2024/03/28 15:03:17;;;;;;;0.90;0.60;;;;;;;;;;4909942;28;20039;-86
2024/03/28 15:06:02;;;;;;;1.17;0.70;;;;;;;;;;4927613;29;20039;-87
2024/03/28 15:08:48;;;;;;;0.65;0.60;;;;;;;;;;4917269;29;20114;-87
2024/03/28 15:11:33;;;;;;;1.40;0.73;;;;;;;;;;4926039;29;20107;-86
2024/03/28 15:14:18;;;;;;;1.38;0.70;;;;;;;;;;4916478;29;20023;-89
2024/03/28 15:17:03;;;;;;;2.78;0.98;;;;;;;;;;4914046;29;20049;-89
2024/03/28 15:19:49;;;;;;;1.30;0.68;;;;;;;;;;4914625;29;20032;-86
2024/03/28 15:22:34;;;;;;;1.77;0.70;;;;;;;;;;4918114;29;20175;-89
2024/03/28 15:25:19;;;;;;;3.50;0.93;;;;;;;;;;4930242;29;20111;-90
2024/03/28 15:28:05;;;;;;;2.53;0.70;;;;;;;;;;4914470;28;20071;-91
2024/03/28 15:30:50;;;;;;;2.50;0.75;;;;;;;;;;4923221;29;20035;-92
2024/03/28 15:33:35;;;;;;;1.15;0.80;;;;;;;;;;4937515;29;20032;-90
2024/03/28 15:36:21;;;;;;;2.70;0.82;;;;;;;;;;4919803;28;20032;-82
2024/03/28 15:39:07;;;;;;;1.17;0.98;;;;;;;;;;4914101;29;20055;-81
2024/03/28 15:41:52;;;;;;;0.80;0.60;;;;;;;;;;4930168;28;20112;-78
2024/03/28 15:44:37;;;;;;;2.42;1.02;;;;;;;;;;4908396;29;20032;-80
2024/03/28 15:47:23;;;;;;;1.85;0.85;;;;;;;;;;4916172;29;20043;-80
2024/03/28 15:50:09;;;;;;;2.25;0.90;;;;;;;;;;4922952;29;20027;-91
2024/03/28 15:52:54;;;;;;;3.50;0.85;;;;;;;;;;4916419;29;20027;-84
2024/03/28 15:55:39;;;;;;;1.15;1.00;;;;;;;;;;4922927;29;20059;-89
2024/03/28 15:58:25;;;;;;;3.25;0.85;;;;;;;;;;4916866;28;20036;-91
2024/03/28 16:01:14;;;;;;;3.28;1.25;;;;;;;;;;4924395;29;20032;-82
2024/03/28 16:04:00;;;;;;;2.42;0.77;;;;;;;;;;4908623;29;20024;-83
2024/03/28 16:06:45;;;;;;;4.75;1.40;;;;;;;;;;4914413;29;20070;-84
2024/03/28 16:09:31;;;;;;;8.80;1.50;;;;;;;;;;4987662;28;20562;-86
2024/03/28 16:12:16;;;;;;;1.63;0.90;;;;;;;;;;4927531;29;20509;-88
2024/03/28 16:15:01;;;;;;;4.20;0.90;;;;;;;;;;4928967;29;20068;-85
2024/03/28 16:17:46;;;;;;;3.22;1.17;;;;;;;;;;4916407;29;20434;-86
2024/03/28 16:20:31;;;;;;;3.03;1.05;;;;;;;;;;4933111;29;20066;-86
2024/03/28 16:23:19;;;;;;;2.58;0.70;;;;;;;;;;4920592;29;20028;-86
2024/03/28 16:26:04;;;;;;;3.20;0.98;;;;;;;;;;4920650;29;20024;-86
2024/03/28 16:28:49;;;;;;;3.78;0.85;;;;;;;;;;4906927;28;20028;-86
2024/03/28 16:31:34;;;;;;;3.60;0.85;;;;;;;;;;4920655;29;20042;-86
2024/03/28 16:34:20;;;;;;;3.35;0.70;;;;;;;;;;4913254;28;20036;-86
2024/03/28 16:37:05;;;;;;;1.77;0.60;;;;;;;;;;4925501;29;20039;-86
2024/03/28 16:39:50;;;;;;;0.93;0.60;;;;;;;;;;4925727;29;20016;-86
2024/03/28 16:42:37;;;;;;;3.20;0.80;;;;;;;;;;4907107;29;20111;-86
2024/03/28 16:45:22;;;;;;;5.40;0.90;;;;;;;;;;4908840;29;20169;-86
2024/03/28 16:48:07;;;;;;;3.70;0.93;;;;;;;;;;4910575;29;20360;-86